createdAt,value
2022-12-23T00:02:41.303Z,100334.75
2022-12-23T00:05:43.452Z,100355.94
2022-12-23T00:08:46.773Z,100334.06
2022-12-23T00:12:12.259Z,100339.84
2022-12-23T00:15:14.882Z,100348.97
2022-12-23T00:18:19.876Z,100355.53
2022-12-23T00:21:22.944Z,100362.50
2022-12-23T00:24:25.129Z,100358.97
2022-12-23T00:27:27.108Z,100362.00
2022-12-23T00:30:29.079Z,100358.44
2022-12-23T00:33:40.251Z,100361.16
2022-12-23T00:36:42.365Z,100359.22
2022-12-23T00:40:06.753Z,100352.53
2022-12-23T00:43:08.991Z,100344.84
2022-12-23T00:46:10.997Z,100341.59
2022-12-23T00:49:36.414Z,100333.00
2022-12-23T00:52:38.656Z,100341.16
2022-12-23T00:55:40.600Z,100336.00
2022-12-23T00:58:42.603Z,100341.22
2022-12-23T01:02:03.324Z,100345.56
2022-12-23T01:05:24.325Z,100338.47
2022-12-23T01:08:27.215Z,100343.13
2022-12-23T01:11:29.367Z,100340.09
2022-12-23T01:14:32.289Z,100328.09
2022-12-23T01:17:34.397Z,100328.91
2022-12-23T01:20:39.665Z,100329.19
2022-12-23T01:23:41.641Z,100318.69
2022-12-23T01:26:43.772Z,100312.53
2022-12-23T01:29:46.528Z,100314.13
2022-12-23T01:32:50.901Z,100311.28
2022-12-23T01:35:59.170Z,100318.50
2022-12-23T01:39:01.187Z,100313.31
2022-12-23T01:42:21.902Z,100306.63
2022-12-23T01:45:33.797Z,100298.44
2022-12-23T01:48:36.407Z,100298.16
2022-12-23T01:51:38.590Z,100296.91
2022-12-23T01:54:43.091Z,100300.19
2022-12-23T01:57:46.477Z,100298.00
2022-12-23T02:01:07.823Z,100289.66
2022-12-23T02:04:14.091Z,100287.88
2022-12-23T02:07:36.449Z,100284.44
2022-12-23T02:11:27.695Z,100277.72
2022-12-23T02:15:07.208Z,100283.47
2022-12-23T02:18:21.853Z,100276.66
2022-12-23T02:21:40.026Z,100267.91
2022-12-23T02:25:01.531Z,100274.88
2022-12-23T02:28:36.474Z,100279.50
2022-12-23T02:31:44.061Z,100273.03
2022-12-23T02:35:01.675Z,100274.41
2022-12-23T02:38:11.156Z,100277.38
2022-12-23T02:41:19.167Z,100269.25
2022-12-23T02:44:39.942Z,100263.09
2022-12-23T02:47:49.863Z,100271.50
2022-12-23T02:50:55.221Z,100267.31
2022-12-23T02:54:01.325Z,100275.97
2022-12-23T02:57:06.542Z,100272.53
2022-12-23T03:00:09.983Z,100272.63
2022-12-23T03:03:12.995Z,100271.69
2022-12-23T03:06:23.351Z,100279.63
2022-12-23T03:09:59.877Z,100284.28
2022-12-23T03:13:40.610Z,100288.94
2022-12-23T03:16:42.569Z,100284.81
2022-12-23T03:20:22.063Z,100276.19
2022-12-23T03:23:29.872Z,100267.69
2022-12-23T03:26:45.538Z,100274.66
2022-12-23T03:29:58.022Z,100267.84
2022-12-23T03:33:06.399Z,100271.97
2022-12-23T03:36:18.684Z,100266.38
2022-12-23T03:39:26.464Z,100259.13
2022-12-23T03:42:35.280Z,100265.78
2022-12-23T03:45:47.549Z,100267.56
2022-12-23T03:48:54.209Z,100269.59
2022-12-23T03:52:21.176Z,100257.19
2022-12-23T03:55:45.564Z,100256.63
2022-12-23T03:58:53.674Z,100263.00
2022-12-23T04:02:28.085Z,100256.75
2022-12-23T04:05:35.620Z,100255.00
2022-12-23T04:08:38.829Z,100259.34
2022-12-23T04:11:41.268Z,100257.19
2022-12-23T04:14:50.266Z,100241.78
2022-12-23T04:17:53.763Z,100249.56
2022-12-23T04:20:59.642Z,100249.00
2022-12-23T04:24:01.732Z,100241.50
2022-12-23T04:27:03.633Z,100244.81
2022-12-23T04:30:06.920Z,100241.03
2022-12-23T04:33:11.527Z,100241.03
2022-12-23T04:36:13.625Z,100243.91
2022-12-23T04:39:15.819Z,100251.16
2022-12-23T04:42:17.998Z,100249.41
2022-12-23T04:45:19.938Z,100264.25
2022-12-23T04:48:22.054Z,100264.09
2022-12-23T04:51:24.109Z,100252.63
2022-12-23T04:54:26.224Z,100253.28
2022-12-23T04:57:28.159Z,100252.34
2022-12-23T05:00:39.107Z,100256.41
2022-12-23T05:03:42.847Z,100255.66
2022-12-23T05:06:45.085Z,100249.00
2022-12-23T05:09:47.430Z,100238.47
2022-12-23T05:12:49.319Z,100241.22
2022-12-23T05:15:53.324Z,100252.56
2022-12-23T05:18:55.438Z,100250.66
2022-12-23T05:21:57.331Z,100260.38
2022-12-23T05:24:59.430Z,100253.59
2022-12-23T05:28:01.672Z,100253.72
2022-12-23T05:31:09.123Z,100246.53
2022-12-23T05:34:11.211Z,100255.53
2022-12-23T05:37:13.410Z,100248.91
2022-12-23T05:40:24.067Z,100247.84
2022-12-23T05:43:30.632Z,100244.88
2022-12-23T05:46:32.744Z,100252.34
2022-12-23T05:49:35.175Z,100250.59
2022-12-23T05:52:37.772Z,100259.41
2022-12-23T05:55:39.890Z,100270.38
2022-12-23T05:58:41.944Z,100279.06
2022-12-23T06:01:44.063Z,100274.41
2022-12-23T06:04:46.099Z,100275.09
2022-12-23T06:07:48.129Z,100275.78
2022-12-23T06:10:54.234Z,100266.44
2022-12-23T06:13:56.292Z,100266.75
2022-12-23T06:16:58.687Z,100270.38
2022-12-23T06:20:01.170Z,100274.59
2022-12-23T06:23:03.222Z,100274.41
2022-12-23T06:26:05.375Z,100273.97
2022-12-23T06:29:07.453Z,100273.03
2022-12-23T06:32:10.457Z,100273.09
2022-12-23T06:35:13.464Z,100275.09
2022-12-23T06:38:15.868Z,100266.00
2022-12-23T06:41:19.012Z,100261.72
2022-12-23T06:44:21.370Z,100267.41
2022-12-23T06:47:23.516Z,100275.63
2022-12-23T06:50:25.960Z,100279.03
2022-12-23T06:53:28.611Z,100278.22
2022-12-23T06:56:30.594Z,100290.91
2022-12-23T06:59:32.745Z,100284.81
2022-12-23T07:02:35.354Z,100294.28
2022-12-23T07:05:37.902Z,100307.06
2022-12-23T07:08:40.487Z,100318.56
2022-12-23T07:11:42.395Z,100322.00
2022-12-23T07:14:44.524Z,100327.94
2022-12-23T07:17:46.568Z,100335.41
2022-12-23T07:20:49.574Z,100345.91
2022-12-23T07:23:52.009Z,100335.88
2022-12-23T07:26:56.135Z,100336.22
2022-12-23T07:29:58.259Z,100316.41
2022-12-23T07:33:00.345Z,100315.16
2022-12-23T07:36:03.342Z,100299.63
2022-12-23T07:39:05.533Z,100282.94
2022-12-23T07:45:30.544Z,100290.03
2022-12-23T07:48:32.557Z,100293.63
2022-12-23T07:51:34.613Z,100298.63
2022-12-23T07:54:37.209Z,100297.72
2022-12-23T07:57:40.078Z,100290.47
2022-12-23T08:00:45.264Z,100296.59
2022-12-23T08:03:47.684Z,100296.50
2022-12-23T08:06:49.835Z,100280.22
2022-12-23T08:09:52.248Z,100286.16
2022-12-23T08:12:54.707Z,100280.88
2022-12-23T08:15:58.822Z,100280.50
2022-12-23T08:19:01.096Z,100271.06
2022-12-23T08:22:07.863Z,100278.97
2022-12-23T08:25:10.286Z,100285.03
2022-12-23T08:28:12.247Z,100277.75
2022-12-23T08:31:29.121Z,100282.31
2022-12-23T08:34:31.410Z,100267.63
2022-12-23T08:37:33.572Z,100272.91
2022-12-23T08:40:40.938Z,100281.69
2022-12-23T08:43:43.664Z,100285.38
2022-12-23T08:46:45.798Z,100278.25
2022-12-23T08:49:48.599Z,100277.69
2022-12-23T08:52:50.646Z,100263.69
2022-12-23T08:55:52.646Z,100248.66
2022-12-23T08:58:55.777Z,100232.53
2022-12-23T09:01:59.893Z,100217.25
2022-12-23T09:05:02.033Z,100229.63
2022-12-23T09:08:04.085Z,100244.66
2022-12-23T09:11:11.952Z,100244.91
2022-12-23T09:14:14.001Z,100253.13
2022-12-23T09:17:17.934Z,100250.59
2022-12-23T09:20:21.155Z,100246.38
2022-12-23T09:23:23.326Z,100250.16
2022-12-23T09:26:30.342Z,100264.81
2022-12-23T09:29:32.658Z,100270.00
2022-12-23T09:32:35.110Z,100264.41
2022-12-23T09:35:37.767Z,100256.91
2022-12-23T09:38:41.370Z,100252.94
2022-12-23T09:42:05.210Z,100250.59
2022-12-23T09:45:13.509Z,100240.59
2022-12-23T09:48:20.051Z,100230.13
2022-12-23T09:51:23.755Z,100220.78
2022-12-23T09:54:33.218Z,100231.72
2022-12-23T09:58:01.656Z,100243.81
2022-12-23T10:01:14.882Z,100249.63
2022-12-23T10:04:23.758Z,100228.81
2022-12-23T10:07:35.966Z,100221.16
2022-12-23T10:10:43.962Z,100210.81
2022-12-23T10:13:50.515Z,100199.88
2022-12-23T10:17:15.223Z,100191.69
2022-12-23T10:20:28.636Z,100200.94
2022-12-23T10:23:36.564Z,100193.63
2022-12-23T10:26:48.965Z,100189.69
2022-12-23T10:29:51.605Z,100193.53
2022-12-23T10:33:21.000Z,100186.59
2022-12-23T10:36:35.412Z,100186.84
2022-12-23T10:39:46.374Z,100169.41
2022-12-23T10:43:03.472Z,100165.72
2022-12-23T10:46:16.068Z,100162.19
2022-12-23T10:49:36.431Z,100161.94
2022-12-23T10:52:43.125Z,100154.44
2022-12-23T10:55:45.515Z,100155.56
2022-12-23T10:58:53.085Z,100154.25
2022-12-23T11:02:05.833Z,100159.72
2022-12-23T11:05:15.682Z,100168.47
2022-12-23T11:08:20.498Z,100167.91
2022-12-23T11:11:22.498Z,100169.53
2022-12-23T11:14:53.499Z,100161.94
2022-12-23T11:18:11.562Z,100165.91
2022-12-23T11:21:15.368Z,100162.09
2022-12-23T11:24:20.320Z,100155.63
2022-12-23T11:27:22.267Z,100160.50
2022-12-23T11:30:25.305Z,100157.38
2022-12-23T11:33:31.391Z,100145.63
2022-12-23T11:36:35.037Z,100150.25
2022-12-23T11:39:37.949Z,100145.91
2022-12-23T11:42:41.491Z,100163.69
2022-12-23T11:45:43.763Z,100163.53
2022-12-23T11:48:51.333Z,100159.63
2022-12-23T11:52:05.797Z,100159.41
2022-12-23T11:55:24.304Z,100169.69
2022-12-23T11:58:28.955Z,100168.56
2022-12-23T12:01:31.765Z,100172.03
2022-12-23T12:04:35.829Z,100165.38
2022-12-23T12:07:43.238Z,100178.47
2022-12-23T12:10:45.305Z,100175.75
2022-12-23T12:13:59.156Z,100185.69
2022-12-23T12:17:12.825Z,100177.91
2022-12-23T12:20:29.060Z,100172.59
2022-12-23T12:23:40.187Z,100170.56
2022-12-23T12:26:47.157Z,100169.06
2022-12-23T12:29:54.440Z,100173.41
2022-12-23T12:32:59.878Z,100182.94
2022-12-23T12:36:40.866Z,100179.28
2022-12-23T12:39:50.012Z,100175.44
2022-12-23T12:43:00.105Z,100166.31
2022-12-23T12:46:31.419Z,100160.88
2022-12-23T12:50:06.772Z,100158.53
2022-12-23T12:53:17.431Z,100163.03
2022-12-23T12:56:45.499Z,100159.78
2022-12-23T12:59:50.882Z,100157.06
2022-12-23T13:02:55.951Z,100172.34
2022-12-23T13:06:17.195Z,100170.97
2022-12-23T13:09:51.402Z,100178.50
2022-12-23T13:13:15.458Z,100184.91
2022-12-23T13:16:34.917Z,100166.88
2022-12-23T13:19:56.758Z,100176.88
2022-12-23T13:23:43.076Z,100164.16
2022-12-23T13:27:25.510Z,100172.88
2022-12-23T13:30:34.320Z,100172.63
2022-12-23T13:34:02.366Z,100173.72
2022-12-23T13:37:18.030Z,100171.50
2022-12-23T13:40:29.763Z,100167.44
2022-12-23T13:43:46.339Z,100177.00
2022-12-23T13:47:06.932Z,100177.25
2022-12-23T13:50:18.153Z,100179.84
2022-12-23T13:53:27.022Z,100176.44
2022-12-23T13:56:54.150Z,100175.91
2022-12-23T14:00:05.387Z,100171.94
2022-12-23T14:03:12.847Z,100166.88
2022-12-23T14:06:36.808Z,100173.72
2022-12-23T14:09:39.451Z,100181.63
2022-12-23T14:12:43.197Z,100182.88
2022-12-23T14:15:57.815Z,100171.94
2022-12-23T14:18:59.981Z,100176.59
2022-12-23T14:22:23.242Z,100175.75
2022-12-23T14:25:56.128Z,100186.25
2022-12-23T14:29:11.227Z,100189.28
2022-12-23T14:32:46.378Z,100180.78
2022-12-23T14:35:48.515Z,100186.38
2022-12-23T14:39:30.761Z,100183.13
2022-12-23T14:42:41.548Z,100191.44
2022-12-23T14:45:44.226Z,100195.81
2022-12-23T14:48:46.074Z,100200.88
2022-12-23T14:51:51.391Z,100194.72
2022-12-23T14:55:20.994Z,100185.56
2022-12-23T14:58:18.825Z,100180.38
2022-12-23T15:01:41.890Z,100186.66
2022-12-23T15:04:53.259Z,100191.81
2022-12-23T15:07:57.080Z,100193.31
2022-12-23T15:11:00.245Z,100206.09
2022-12-23T15:14:11.237Z,100208.25
2022-12-23T15:17:31.409Z,100213.84
2022-12-23T15:20:35.413Z,100227.66
2022-12-23T15:23:37.674Z,100230.94
2022-12-23T15:26:51.856Z,100221.38
2022-12-23T15:30:02.624Z,100214.25
2022-12-23T15:33:34.729Z,100210.75
2022-12-23T15:36:35.768Z,100217.94
2022-12-23T15:39:41.122Z,100211.97
2022-12-23T15:42:48.647Z,100210.72
2022-12-23T15:45:51.218Z,100215.50
2022-12-23T15:48:53.407Z,100208.38
2022-12-23T15:52:11.133Z,100194.91
2022-12-23T15:55:26.165Z,100205.41
2022-12-23T15:58:32.511Z,100195.03
2022-12-23T16:01:41.081Z,100199.53
2022-12-23T16:04:54.931Z,100202.13
2022-12-23T16:08:14.119Z,100212.78
2022-12-23T16:11:20.823Z,100199.09
2022-12-23T16:14:32.476Z,100206.66
2022-12-23T16:17:36.452Z,100209.63
2022-12-23T16:20:56.670Z,100214.69
2022-12-23T16:23:59.977Z,100208.94
2022-12-23T16:27:01.905Z,100196.38
2022-12-23T16:30:11.800Z,100194.88
2022-12-23T16:33:40.055Z,100206.34
2022-12-23T16:36:42.271Z,100203.59
2022-12-23T16:39:44.352Z,100208.38
2022-12-23T16:42:46.435Z,100204.28
2022-12-23T16:45:53.267Z,100192.28
2022-12-23T16:48:58.826Z,100201.03
2022-12-23T16:52:01.160Z,100199.66
2022-12-23T16:55:03.448Z,100188.31
2022-12-23T16:58:05.902Z,100183.09
2022-12-23T17:01:14.544Z,100180.78
2022-12-23T17:04:16.828Z,100181.91
2022-12-23T17:07:19.287Z,100188.31
2022-12-23T17:10:27.747Z,100195.16
2022-12-23T17:13:29.772Z,100189.16
2022-12-23T17:16:32.528Z,100190.25
2022-12-23T17:19:34.694Z,100180.00
2022-12-23T17:22:38.054Z,100187.91
2022-12-23T17:25:39.961Z,100189.13
2022-12-23T17:28:41.958Z,100178.78
2022-12-23T17:31:44.907Z,100181.38
2022-12-23T17:34:47.192Z,100182.72
2022-12-23T17:37:49.456Z,100171.66
2022-12-23T17:40:52.097Z,100176.72
2022-12-23T17:43:55.427Z,100182.44
2022-12-23T17:46:58.086Z,100180.28
2022-12-23T17:50:00.147Z,100179.16
2022-12-23T17:53:02.177Z,100177.66
2022-12-23T17:56:13.140Z,100175.22
2022-12-23T17:59:15.566Z,100187.22
2022-12-23T18:02:32.986Z,100184.75
2022-12-23T18:05:35.875Z,100178.19
2022-12-23T18:08:37.885Z,100178.22
2022-12-23T18:11:44.212Z,100170.03
2022-12-23T18:14:46.287Z,100166.19
2022-12-23T18:17:48.535Z,100160.16
2022-12-23T18:20:56.613Z,100160.59
2022-12-23T18:23:59.850Z,100170.41
2022-12-23T18:27:02.467Z,100168.22
2022-12-23T18:30:05.175Z,100164.41
2022-12-23T18:33:10.363Z,100178.88
2022-12-23T18:36:30.726Z,100156.63
2022-12-23T18:39:33.022Z,100180.25
2022-12-23T18:42:34.971Z,100183.69
2022-12-23T18:45:47.827Z,100184.75
2022-12-23T18:48:57.345Z,100174.38
2022-12-23T18:51:59.345Z,100179.97
2022-12-23T18:55:01.450Z,100182.72
2022-12-23T18:58:04.235Z,100186.81
2022-12-23T19:01:06.814Z,100190.09
2022-12-23T19:04:09.111Z,100186.81
2022-12-23T19:07:11.550Z,100192.00
2022-12-23T19:10:36.144Z,100194.19
2022-12-23T19:13:38.429Z,100203.88
2022-12-23T19:16:46.058Z,100199.78
2022-12-23T19:19:51.437Z,100201.28
2022-12-23T19:22:53.379Z,100195.84
2022-12-23T19:25:55.786Z,100207.72
2022-12-23T19:28:58.109Z,100221.09
2022-12-23T19:32:00.508Z,100219.31
2022-12-23T19:35:02.895Z,100214.94
2022-12-23T19:38:06.456Z,100220.41
2022-12-23T19:41:10.604Z,100211.97
2022-12-23T19:44:12.752Z,100213.72
2022-12-23T19:47:15.008Z,100212.75
2022-12-23T19:50:20.133Z,100219.63
2022-12-23T19:53:22.688Z,100227.25
2022-12-23T19:56:25.197Z,100216.59
2022-12-23T19:59:27.325Z,100209.22
2022-12-23T20:02:30.281Z,100218.22
2022-12-23T20:05:32.353Z,100233.53
2022-12-23T20:08:34.928Z,100238.59
2022-12-23T20:11:39.921Z,100240.63
2022-12-23T20:14:41.911Z,100234.34
2022-12-23T20:17:43.742Z,100236.00
2022-12-23T20:20:46.975Z,100224.13
2022-12-23T20:23:49.586Z,100229.44
2022-12-23T20:26:52.297Z,100223.69
2022-12-23T20:29:54.674Z,100218.34
2022-12-23T20:32:57.497Z,100197.34
2022-12-23T20:36:00.496Z,100200.34
2022-12-23T20:39:03.999Z,100193.53
2022-12-23T20:42:06.477Z,100189.13
2022-12-23T20:45:09.227Z,100188.97
2022-12-23T20:48:11.275Z,100183.06
2022-12-23T20:51:20.096Z,100173.13
2022-12-23T20:54:27.876Z,100173.00
2022-12-23T20:57:36.212Z,100168.91
2022-12-23T21:00:38.720Z,100178.97
2022-12-23T21:03:41.459Z,100184.06
2022-12-23T21:06:44.303Z,100179.44
2022-12-23T21:09:46.407Z,100186.97
2022-12-23T21:12:48.579Z,100178.75
2022-12-23T21:15:51.255Z,100176.03
2022-12-23T21:18:53.607Z,100177.66
2022-12-23T21:21:57.166Z,100190.38
2022-12-23T21:24:59.449Z,100185.72
2022-12-23T21:28:01.783Z,100167.72
2022-12-23T21:31:07.344Z,100164.31
2022-12-23T21:34:11.020Z,100158.03
2022-12-23T21:37:13.187Z,100161.31
2022-12-23T21:40:15.926Z,100148.03
2022-12-23T21:43:18.224Z,100154.88
2022-12-23T21:46:22.108Z,100149.69
2022-12-23T21:49:24.121Z,100141.75
2022-12-23T21:52:26.204Z,100146.53
2022-12-23T21:55:28.565Z,100142.28
2022-12-23T21:58:30.793Z,100131.78
2022-12-23T22:01:36.419Z,100133.97
2022-12-23T22:04:39.397Z,100134.53
2022-12-23T22:07:41.376Z,100115.25
2022-12-23T22:10:51.240Z,100112.94
2022-12-23T22:13:55.201Z,100106.66
2022-12-23T22:16:57.420Z,100096.97
2022-12-23T22:19:59.502Z,100079.47
2022-12-23T22:23:02.273Z,100068.88
2022-12-23T22:26:05.715Z,100068.88
2022-12-23T22:29:08.199Z,100058.47
2022-12-23T22:32:10.291Z,100065.69
2022-12-23T22:35:12.532Z,100067.47
2022-12-23T22:38:14.685Z,100074.00
2022-12-23T22:41:16.889Z,100066.38
2022-12-23T22:44:20.038Z,100060.31
2022-12-23T22:47:22.021Z,100058.38
2022-12-23T22:50:25.037Z,100055.97
2022-12-23T22:53:29.847Z,100059.81
2022-12-23T22:56:32.164Z,100058.06
2022-12-23T22:59:34.267Z,100050.53
2022-12-23T23:02:36.326Z,100046.50
2022-12-23T23:05:38.948Z,100039.03
2022-12-23T23:08:47.709Z,100049.63
2022-12-23T23:11:51.737Z,100051.59
2022-12-23T23:14:53.853Z,100052.22
2022-12-23T23:18:00.848Z,100052.19
2022-12-23T23:21:02.999Z,100050.38
2022-12-23T23:24:05.771Z,100055.75
2022-12-23T23:27:07.979Z,100048.16
2022-12-23T23:30:12.224Z,100052.75
2022-12-23T23:33:14.369Z,100066.44
2022-12-23T23:36:16.379Z,100071.03
2022-12-23T23:39:18.787Z,100065.25
2022-12-23T23:42:21.667Z,100069.09
2022-12-23T23:45:23.918Z,100054.03
2022-12-23T23:48:25.864Z,100039.44
2022-12-23T23:51:27.898Z,100030.00
2022-12-23T23:54:29.868Z,100031.13
2022-12-23T23:57:32.215Z,100019.31
